Time;durP1;ratioP1;P1;durP2;ratioP2;P2;SDS_P1;SDS_P2;PMS_P1;PMS_P2;Temp;Humidity;BMP_temperature;BMP_pressure;BME280_temperature;BME280_humidity;BME280_pressure;Samples;Min_cycle;Max_cycle;Signal;HPM_P1;HPM_P2
2023/08/02 00:00:27;;;;;;;1.10;0.80;;;;;;;13.79;100.00;97935.67;107117;1267;25360;-68
2023/08/02 00:03:24;;;;;;;1.60;0.80;;;;;;;13.75;100.00;97940.25;106976;1266;22636;-66
2023/08/02 00:05:58;;;;;;;1.50;0.80;;;;;;;13.71;100.00;97944.98;106939;1269;99163;-67
2023/08/02 00:08:29;;;;;;;2.50;1.00;;;;;;;13.67;100.00;97947.73;107021;1270;27463;-67
2023/08/02 00:10:58;;;;;;;2.30;0.90;;;;;;;13.64;100.00;97949.57;106964;1267;99342;-66
2023/08/02 00:13:28;;;;;;;2.90;0.90;;;;;;;13.60;100.00;97958.12;107044;1266;22520;-69
2023/08/02 00:16:00;;;;;;;1.00;0.60;;;;;;;13.57;100.00;97962.58;106975;1269;99783;-66
2023/08/02 00:18:31;;;;;;;1.50;0.80;;;;;;;13.53;100.00;97969.19;107072;1267;22524;-67
2023/08/02 00:21:00;;;;;;;1.60;0.80;;;;;;;13.49;100.00;97970.98;107281;1266;24069;-65
2023/08/02 00:23:38;;;;;;;2.10;0.90;;;;;;;13.46;100.00;97975.05;107436;1272;99973;-66
2023/08/02 00:26:10;;;;;;;1.90;0.60;;;;;;;13.42;100.00;97973.18;106972;1269;22655;-67
2023/08/02 00:28:45;;;;;;;1.70;0.80;;;;;;;13.39;100.00;97966.92;106994;1266;99318;-65
2023/08/02 00:31:16;;;;;;;1.00;0.70;;;;;;;13.38;100.00;97966.32;106963;1267;22567;-67
2023/08/02 00:33:48;;;;;;;0.90;0.70;;;;;;;13.36;100.00;97969.30;106892;1263;99487;-64
2023/08/02 00:36:20;;;;;;;1.40;0.70;;;;;;;13.34;100.00;97968.58;107059;1269;23887;-66
2023/08/02 00:38:49;;;;;;;0.70;0.50;;;;;;;13.32;100.00;97967.92;107143;1272;22523;-65
2023/08/02 00:41:21;;;;;;;0.70;0.60;;;;;;;13.28;100.00;97971.98;107148;1266;99356;-65
2023/08/02 00:43:56;;;;;;;1.40;0.70;;;;;;;13.25;100.00;97974.64;107034;1269;24824;-64
2023/08/02 00:46:28;;;;;;;1.10;0.70;;;;;;;13.18;100.00;97975.98;106976;1267;99649;-64
2023/08/02 00:49:00;;;;;;;1.10;0.70;;;;;;;13.14;100.00;97976.23;107036;1263;22528;-66
2023/08/02 00:51:35;;;;;;;2.30;1.00;;;;;;;13.08;100.00;97973.05;106891;1267;24372;-65
2023/08/02 00:54:13;;;;;;;2.60;0.70;;;;;;;13.05;100.00;97976.81;106834;1273;22520;-65
2023/08/02 00:56:44;;;;;;;;;;;;;;;13.08;100.00;97977.40;107085;1269;25265;-66
2023/08/02 00:59:16;;;;;;;1.20;0.80;;;;;;;13.10;100.00;97979.34;106963;1269;84704;-66
2023/08/02 01:01:47;;;;;;;1.80;0.80;;;;;;;13.08;100.00;97977.80;107090;1269;23939;-64
2023/08/02 01:04:22;;;;;;;1.10;0.70;;;;;;;13.04;100.00;97973.04;106900;1266;99387;-65
2023/08/02 01:07:03;;;;;;;5.20;0.90;;;;;;;13.01;100.00;97969.81;107036;1267;25376;-64
2023/08/02 01:09:43;;;;;;;1.30;0.70;;;;;;;13.00;100.00;97976.02;106981;1269;22855;-64
2023/08/02 01:12:17;;;;;;;0.90;0.60;;;;;;;13.00;100.00;97981.13;106934;1272;22535;-64
2023/08/02 01:14:56;;;;;;;1.60;0.90;;;;;;;13.00;100.00;97982.83;106926;1270;25149;-63
2023/08/02 01:17:38;;;;;;;1.40;1.00;;;;;;;13.00;100.00;97985.61;107140;1267;99289;-65
2023/08/02 01:20:08;;;;;;;2.50;1.50;;;;;;;12.99;100.00;97983.06;106948;1264;22636;-66
2023/08/02 01:22:39;;;;;;;1.40;1.00;;;;;;;12.99;100.00;97983.08;106875;1266;99237;-64
2023/08/02 01:25:12;;;;;;;1.10;0.80;;;;;;;12.99;100.00;97982.06;106950;1270;22901;-64
2023/08/02 01:28:04;;;;;;;1.00;0.80;;;;;;;13.01;100.00;97981.69;110708;1266;23855;-63
2023/08/02 01:30:37;;;;;;;3.30;1.20;;;;;;;13.06;100.00;97982.65;110720;1273;23218;-63
2023/08/02 01:33:05;;;;;;;0.80;0.80;;;;;;;13.08;100.00;97981.08;109985;1266;25360;-64
2023/08/02 01:35:38;;;;;;;0.90;0.60;;;;;;;13.12;100.00;97977.39;106945;1272;99483;-62
2023/08/02 01:38:07;;;;;;;1.50;0.90;;;;;;;13.19;100.00;97973.02;107153;1267;22993;-64
2023/08/02 01:40:42;;;;;;;4.80;1.20;;;;;;;13.26;100.00;97965.64;106793;1272;99265;-66
2023/08/02 01:43:16;;;;;;;1.20;0.70;;;;;;;13.33;100.00;97969.20;106939;1268;25347;-68
2023/08/02 01:45:51;;;;;;;2.10;1.10;;;;;;;13.39;100.00;97970.67;106980;1259;23492;-67
2023/08/02 01:48:25;;;;;;;0.80;0.60;;;;;;;13.43;100.00;97973.24;106803;1270;22690;-69
2023/08/02 01:51:00;;;;;;;2.20;0.80;;;;;;;13.51;100.00;97972.58;106821;1268;22615;-66
2023/08/02 01:53:42;;;;;;;1.10;0.90;;;;;;;13.58;100.00;97973.45;106833;1266;99265;-66
2023/08/02 01:59:16;;;;;;;;;;;;;;;;;;;;;
2023/08/02 02:01:48;;;;;;;2.10;1.10;;;;;;;13.50;100.00;97970.31;106870;1269;24282;-67
2023/08/02 02:04:17;;;;;;;2.50;1.20;;;;;;;13.48;100.00;97972.79;107002;1267;99429;-65
2023/08/02 02:06:49;;;;;;;2.10;1.20;;;;;;;13.45;100.00;97977.27;106972;1271;22577;-65
2023/08/02 02:09:18;;;;;;;2.10;1.40;;;;;;;13.43;100.00;97978.88;106858;1270;22635;-65
2023/08/02 02:11:47;;;;;;;1.50;1.20;;;;;;;13.41;100.00;97980.38;106883;1270;99824;-66
2023/08/02 02:14:22;;;;;;;1.40;0.90;;;;;;;13.39;100.00;97978.80;107101;1267;26059;-68
2023/08/02 02:16:56;;;;;;;1.60;1.10;;;;;;;13.36;100.00;97984.67;106978;1267;99368;-67
2023/08/02 02:19:28;;;;;;;2.50;1.30;;;;;;;13.36;100.00;97984.70;107005;1267;23877;-66
2023/08/02 02:21:57;;;;;;;2.10;1.80;;;;;;;13.38;100.00;97988.51;106950;1262;99463;-66
2023/08/02 02:24:32;;;;;;;1.90;1.20;;;;;;;13.48;100.00;97988.66;106978;1266;25516;-66
2023/08/02 02:27:12;;;;;;;1.60;1.40;;;;;;;13.61;100.00;97992.07;106992;1267;22520;-71
2023/08/02 02:30:01;;;;;;;1.60;1.40;;;;;;;13.72;100.00;97990.85;106876;1267;99268;-70
2023/08/02 02:32:33;;;;;;;1.60;1.50;;;;;;;13.77;100.00;97985.50;107011;1266;23094;-66
2023/08/02 02:35:06;;;;;;;2.60;1.40;;;;;;;13.75;100.00;97984.42;106889;1266;99332;-66
2023/08/02 02:37:40;;;;;;;1.40;1.20;;;;;;;13.74;100.00;97983.35;107100;1267;22520;-66
2023/08/02 02:40:12;;;;;;;1.30;1.20;;;;;;;13.72;100.00;97989.77;106899;1267;99496;-65
2023/08/02 02:42:47;;;;;;;2.20;1.40;;;;;;;13.71;100.00;97992.70;106988;1269;25306;-66
2023/08/02 02:45:37;;;;;;;8.60;1.80;;;;;;;13.74;100.00;97995.19;107126;1256;22590;-65
2023/08/02 02:48:18;;;;;;;1.80;1.50;;;;;;;13.82;100.00;97994.64;106892;1267;99097;-67
2023/08/02 02:50:50;;;;;;;1.70;1.50;;;;;;;13.85;100.00;97997.20;106905;1269;25552;-66
2023/08/02 02:53:25;;;;;;;3.00;1.60;;;;;;;13.81;100.00;97992.66;106880;1266;99333;-65
2023/08/02 02:55:57;;;;;;;1.50;1.20;;;;;;;13.74;100.00;97997.63;106947;1267;25374;-65
2023/08/02 02:58:59;;;;;;;1.90;1.30;;;;;;;13.68;100.00;98003.08;106848;1269;99546;-66
2023/08/02 03:01:29;;;;;;;2.80;1.50;;;;;;;13.64;100.00;98005.63;106926;1272;22530;-66
2023/08/02 03:04:08;;;;;;;1.40;1.20;;;;;;;13.72;100.00;98008.33;106821;1266;100034;-66
2023/08/02 03:06:40;;;;;;;2.00;1.50;;;;;;;13.84;100.00;98013.37;107014;1266;22626;-66
2023/08/02 03:09:15;;;;;;;1.00;0.90;;;;;;;13.95;100.00;98011.66;107024;1260;22515;-69
2023/08/02 03:11:46;;;;;;;1.30;1.20;;;;;;;14.06;100.00;98011.91;107010;1266;99159;-67
2023/08/02 03:14:20;;;;;;;1.60;1.20;;;;;;;14.17;100.00;98010.34;107140;1266;25208;-69
2023/08/02 03:16:52;;;;;;;1.40;1.30;;;;;;;14.24;100.00;98013.83;107080;1269;99487;-68
2023/08/02 03:19:27;;;;;;;3.10;1.10;;;;;;;14.34;100.00;98018.42;107007;1267;25233;-67
2023/08/02 03:21:59;;;;;;;1.50;1.20;;;;;;;14.41;100.00;98020.55;106885;1266;99518;-65
2023/08/02 03:24:31;;;;;;;2.50;1.20;;;;;;;14.46;100.00;98021.13;106975;1268;24180;-68
2023/08/02 03:27:04;;;;;;;1.20;1.10;;;;;;;14.51;100.00;98021.52;106946;1261;22911;-67
2023/08/02 03:29:41;;;;;;;1.20;0.80;;;;;;;14.56;100.00;98016.10;107023;1269;99866;-68
2023/08/02 03:32:20;;;;;;;1.10;1.00;;;;;;;14.58;100.00;98012.22;107056;1266;22819;-69
2023/08/02 03:34:51;;;;;;;2.50;0.80;;;;;;;14.65;100.00;98014.73;106833;1272;99308;-68
2023/08/02 03:37:23;;;;;;;2.00;1.00;;;;;;;14.70;100.00;98020.04;106967;1266;22557;-67
2023/08/02 03:39:55;;;;;;;0.90;0.80;;;;;;;14.71;100.00;98018.41;106820;1270;99439;-65
2023/08/02 03:42:27;;;;;;;3.30;1.00;;;;;;;14.66;100.00;98016.79;107044;1267;25220;-65
2023/08/02 03:44:58;;;;;;;0.70;0.70;;;;;;;14.64;100.00;98012.96;106994;1267;23866;-70
2023/08/02 03:47:37;;;;;;;0.70;0.70;;;;;;;14.68;100.00;98012.22;106894;1266;99271;-67
2023/08/02 03:50:09;;;;;;;0.80;0.60;;;;;;;14.75;100.00;98015.08;107007;1275;24367;-67
2023/08/02 03:52:44;;;;;;;2.50;1.00;;;;;;;14.79;100.00;98008.35;106933;1272;99345;-68
2023/08/02 03:55:15;;;;;;;0.80;0.70;;;;;;;14.85;100.00;98008.58;107026;1268;25236;-67
2023/08/02 03:57:45;;;;;;;1.30;0.80;;;;;;;14.90;100.00;98006.52;107065;1269;22526;-67
2023/08/02 04:00:13;;;;;;;0.80;0.80;;;;;;;14.96;100.00;98002.20;106963;1266;99093;-67
2023/08/02 04:02:46;;;;;;;0.70;0.70;;;;;;;15.00;100.00;98000.98;107190;1266;25331;-68
2023/08/02 04:05:18;;;;;;;0.80;0.70;;;;;;;15.10;100.00;97999.08;106976;1263;99563;-69
2023/08/02 04:07:47;;;;;;;1.10;0.90;;;;;;;15.16;100.00;98000.91;106899;1269;25465;-67
2023/08/02 04:10:24;;;;;;;1.40;0.90;;;;;;;15.24;100.00;97998.09;106915;1267;99438;-68
2023/08/02 04:13:03;;;;;;;1.60;0.90;;;;;;;15.31;100.00;98001.14;107020;1267;25321;-67
2023/08/02 04:15:35;;;;;;;0.90;0.80;;;;;;;15.34;100.00;97996.08;106923;1267;22650;-66
2023/08/02 04:18:13;;;;;;;1.50;0.70;;;;;;;15.37;100.00;97993.53;107026;1264;99077;-66
2023/08/02 04:20:44;;;;;;;1.00;0.80;;;;;;;15.39;100.00;97995.89;107093;1266;22529;-67
2023/08/02 04:23:13;;;;;;;0.60;0.60;;;;;;;15.46;100.00;97993.88;106758;1272;99241;-67
2023/08/02 04:25:46;;;;;;;2.30;0.80;;;;;;;15.54;100.00;97991.56;106985;1269;25403;-68
2023/08/02 04:32:31;;;;;;;0.90;0.70;;;;;;;15.59;100.00;97998.86;107573;1272;23939;-71
2023/08/02 04:35:00;;;;;;;1.00;0.80;;;;;;;15.61;100.00;97995.10;106456;1275;99356;-67
2023/08/02 04:37:29;;;;;;;1.10;0.60;;;;;;;15.64;100.00;97993.04;106623;1272;24209;-68
2023/08/02 04:40:01;;;;;;;1.10;0.90;;;;;;;15.70;100.00;97994.30;106824;1272;99389;-68
2023/08/02 04:42:33;;;;;;;1.70;0.90;;;;;;;15.72;100.00;97994.05;106488;1272;25299;-68
2023/08/02 04:45:02;;;;;;;4.80;0.70;;;;;;;15.77;100.00;97995.36;106644;1272;23873;-69
2023/08/02 04:47:33;;;;;;;1.60;0.60;;;;;;;15.86;100.00;97997.30;106454;1272;99378;-69
2023/08/02 04:50:02;;;;;;;2.00;0.50;;;;;;;15.95;100.00;97995.41;106501;1276;24220;-69
2023/08/02 04:52:41;;;;;;;0.70;0.70;;;;;;;15.99;100.00;98001.53;106670;1259;100001;-69
2023/08/02 04:55:13;;;;;;;0.70;0.60;;;;;;;16.07;100.00;98003.03;106496;1264;22480;-68
2023/08/02 04:57:45;;;;;;;1.50;0.80;;;;;;;16.09;100.00;98004.75;106455;1270;22747;-70
2023/08/02 05:00:17;;;;;;;1.40;0.70;;;;;;;16.18;100.00;98009.30;106469;1275;99411;-69
2023/08/02 05:02:49;;;;;;;1.00;0.90;;;;;;;16.24;100.00;98007.11;106607;1272;25233;-69
2023/08/02 05:05:18;;;;;;;1.50;0.60;;;;;;;16.29;100.00;98007.96;106494;1272;99918;-67
2023/08/02 05:07:47;;;;;;;3.10;0.70;;;;;;;16.39;100.00;98004.92;106556;1268;22530;-69
2023/08/02 05:10:16;;;;;;;1.40;0.80;;;;;;;16.55;100.00;98002.16;106840;1268;99434;-68
2023/08/02 05:12:45;;;;;;;1.80;0.70;;;;;;;16.58;100.00;98001.49;107040;1272;23942;-70
2023/08/02 05:15:15;;;;;;;1.60;0.80;;;;;;;16.68;100.00;98002.80;107017;1269;24205;-69
2023/08/02 05:17:43;;;;;;;2.00;0.70;;;;;;;16.72;100.00;98001.99;107032;1271;99822;-67
2023/08/02 05:20:13;;;;;;;1.10;0.60;;;;;;;16.74;100.00;98003.40;107027;1266;25505;-67
2023/08/02 05:22:54;;;;;;;1.90;0.90;;;;;;;16.67;100.00;97998.46;107087;1268;99213;-68
2023/08/02 05:25:27;;;;;;;1.20;0.40;;;;;;;16.81;100.00;98005.69;107173;1266;24372;-68
2023/08/02 05:27:59;;;;;;;2.80;0.70;;;;;;;16.97;100.00;98005.14;106927;1266;99402;-65
2023/08/02 05:30:42;;;;;;;2.10;0.90;;;;;;;16.94;100.00;98000.34;106917;1266;24190;-68
2023/08/02 05:33:11;;;;;;;0.60;0.60;;;;;;;16.86;100.00;98003.71;106922;1272;22629;-68
2023/08/02 05:35:40;;;;;;;1.80;0.70;;;;;;;16.89;100.00;98002.14;106959;1266;99275;-67
2023/08/02 05:38:12;;;;;;;1.90;0.90;;;;;;;17.09;100.00;98013.13;107029;1267;22525;-68
2023/08/02 05:40:46;;;;;;;2.80;0.80;;;;;;;17.22;100.00;98018.57;107128;1272;99303;-67
2023/08/02 05:43:15;;;;;;;0.70;0.50;;;;;;;17.27;100.00;98021.11;107106;1268;22574;-64
2023/08/02 05:45:44;;;;;;;1.40;0.70;;;;;;;17.30;100.00;98017.33;107172;1274;22775;-66
2023/08/02 05:48:25;;;;;;;1.70;1.00;;;;;;;17.37;100.00;98012.89;107174;1269;99037;-65
2023/08/02 05:50:54;;;;;;;1.90;0.70;;;;;;;17.55;100.00;98013.33;106983;1266;27297;-67
2023/08/02 05:53:55;;;;;;;1.10;0.70;;;;;;;17.64;100.00;98013.94;107231;1259;99255;-65
2023/08/02 05:56:39;;;;;;;0.80;0.60;;;;;;;17.66;100.00;98015.16;107326;1269;22756;-67
2023/08/02 05:59:11;;;;;;;1.30;0.70;;;;;;;17.76;100.00;98012.02;107114;1269;99334;-65
2023/08/02 06:01:47;;;;;;;1.20;0.70;;;;;;;18.00;100.00;98012.17;107235;1261;22779;-66
2023/08/02 06:04:25;;;;;;;3.60;1.00;;;;;;;18.07;100.00;98012.63;102807;1269;5710165;-66
2023/08/02 06:06:57;;;;;;;2.10;0.70;;;;;;;18.16;100.00;98014.59;106974;1266;25281;-66
2023/08/02 06:09:30;;;;;;;1.40;0.60;;;;;;;18.26;100.00;98018.43;106977;1266;25259;-64
2023/08/02 06:12:00;;;;;;;1.10;0.80;;;;;;;18.32;100.00;98011.67;107031;1266;100310;-66
2023/08/02 06:14:34;;;;;;;1.50;0.80;;;;;;;18.41;100.00;98016.60;106774;1267;22540;-66
2023/08/02 06:17:03;;;;;;;1.60;0.80;;;;;;;18.50;100.00;98017.66;106811;1272;99295;-65
2023/08/02 06:19:32;;;;;;;2.10;0.70;;;;;;;18.49;100.00;98015.66;106896;1266;22468;-65
2023/08/02 06:22:13;;;;;;;1.00;0.80;;;;;;;18.55;100.00;98017.77;106958;1267;99510;-65
2023/08/02 06:24:46;;;;;;;1.50;1.00;;;;;;;18.68;100.00;98021.94;106833;1269;23784;-65
2023/08/02 06:27:14;;;;;;;0.70;0.60;;;;;;;18.68;100.00;98021.66;106973;1263;22606;-71
2023/08/02 06:29:46;;;;;;;0.60;0.60;;;;;;;18.71;100.00;98016.41;106874;1263;99283;-65
2023/08/02 06:32:15;;;;;;;2.50;0.70;;;;;;;18.76;100.00;98023.54;106930;1269;22523;-63
2023/08/02 06:34:45;;;;;;;1.80;0.90;;;;;;;18.68;100.00;98021.58;106945;1268;99338;-65
2023/08/02 06:37:17;;;;;;;1.40;0.80;;;;;;;18.67;100.00;98019.73;107013;1266;25405;-62
2023/08/02 06:39:47;;;;;;;1.70;0.80;;;;;;;18.75;100.00;98016.05;107072;1274;22547;-66
2023/08/02 06:42:18;;;;;;;3.10;0.80;;;;;;;18.79;100.00;98019.98;106895;1267;99079;-59
2023/08/02 06:44:48;;;;;;;0.90;0.60;;;;;;;19.01;100.00;98017.82;106925;1266;22512;-59
2023/08/02 06:47:23;;;;;;;1.70;0.60;;;;;;;19.21;100.00;98023.39;107107;1266;99562;-60
2023/08/02 06:49:52;;;;;;;1.80;0.90;;;;;;;19.28;100.00;98016.64;107013;1269;22624;-59
2023/08/02 06:52:25;;;;;;;1.50;1.00;;;;;;;19.41;100.00;98022.55;106996;1269;99438;-57
2023/08/02 06:54:55;;;;;;;1.60;0.60;;;;;;;19.91;100.00;98021.27;106860;1266;24451;-67
2023/08/02 06:57:24;;;;;;;2.50;0.80;;;;;;;20.16;100.00;98025.25;107047;1269;22652;-63
2023/08/02 06:59:55;;;;;;;1.90;0.70;;;;;;;20.15;100.00;98018.91;106895;1271;99274;-61
2023/08/02 07:02:24;;;;;;;2.60;1.70;;;;;;;20.18;100.00;98018.77;106991;1270;22538;-62
2023/08/02 07:04:54;;;;;;;4.30;0.80;;;;;;;20.20;100.00;98021.65;106840;1269;99336;-64
2023/08/02 07:07:23;;;;;;;0.80;0.60;;;;;;;20.42;100.00;98021.45;106975;1266;22571;-62
2023/08/02 07:09:52;;;;;;;1.90;0.80;;;;;;;20.64;100.00;98018.52;106950;1269;22537;-60
2023/08/02 07:12:21;;;;;;;1.50;0.50;;;;;;;20.64;100.00;98020.35;107027;1257;25338;-62
2023/08/02 07:14:50;;;;;;;1.30;0.50;;;;;;;20.79;100.00;98019.64;107069;1267;24234;-61
2023/08/02 07:17:19;;;;;;;1.00;0.50;;;;;;;21.65;100.00;98024.01;107074;1269;99299;-61
2023/08/02 07:19:49;;;;;;;1.20;0.60;;;;;;;22.23;100.00;98021.04;106923;1266;26500;-62
2023/08/02 07:22:22;;;;;;;1.80;0.60;;;;;;;22.80;100.00;98020.88;106966;1270;99773;-63
2023/08/02 07:24:52;;;;;;;1.70;0.50;;;;;;;23.66;100.00;98026.05;107321;1272;23918;-61
2023/08/02 07:27:21;;;;;;;2.60;0.60;;;;;;;24.68;100.00;98030.19;106946;1266;22675;-63
2023/08/02 07:29:51;;;;;;;1.80;0.50;;;;;;;24.88;100.00;98037.30;106987;1262;99520;-61
2023/08/02 07:32:20;;;;;;;1.60;0.70;;;;;;;25.07;100.00;98036.89;107023;1270;22524;-66
2023/08/02 07:34:49;;;;;;;2.30;0.80;;;;;;;24.68;99.88;98039.42;106778;1272;99297;-62
2023/08/02 07:37:18;;;;;;;2.50;0.70;;;;;;;23.97;98.41;98038.55;106833;1269;24231;-61
2023/08/02 07:39:47;;;;;;;2.70;1.20;;;;;;;23.40;99.21;98043.33;106934;1266;23288;-64
2023/08/02 07:42:16;;;;;;;4.00;0.50;;;;;;;23.19;99.75;98041.42;106898;1272;100423;-59
2023/08/02 07:45:00;;;;;;;3.30;0.70;;;;;;;23.19;98.90;98044.33;106782;1271;24049;-60
2023/08/02 07:47:29;;;;;;;0.50;0.40;;;;;;;23.28;98.62;98052.41;106997;1269;99155;-59
2023/08/02 07:49:58;;;;;;;2.10;0.60;;;;;;;23.59;98.14;98058.02;107093;1267;25274;-59
2023/08/02 07:52:27;;;;;;;1.10;0.40;;;;;;;23.74;96.79;98061.06;106908;1267;99872;-59
2023/08/02 07:54:56;;;;;;;4.40;0.60;;;;;;;23.60;95.37;98062.20;106986;1267;22523;-63
2023/08/02 07:57:31;;;;;;;2.60;0.50;;;;;;;23.25;93.91;98066.13;107178;1266;25328;-60
2023/08/02 08:00:02;;;;;;;0.90;0.50;;;;;;;22.96;93.19;98069.52;107162;1266;100167;-60
2023/08/02 08:02:31;;;;;;;1.00;0.40;;;;;;;23.27;96.18;98072.91;106994;1266;25166;-59
2023/08/02 08:05:01;;;;;;;1.80;0.60;;;;;;;24.92;99.03;98072.94;107259;1266;99336;-59
2023/08/02 08:07:30;;;;;;;0.90;0.50;;;;;;;26.16;93.92;98077.46;107169;1266;22592;-60
2023/08/02 08:09:59;;;;;;;2.60;0.50;;;;;;;25.77;90.49;98082.48;107063;1267;99292;-59
2023/08/02 08:12:28;;;;;;;1.40;0.80;;;;;;;25.24;90.95;98081.98;107202;1269;25342;-60
2023/08/02 08:14:57;;;;;;;2.30;0.70;;;;;;;25.47;91.96;98082.66;107386;1266;25478;-61
2023/08/02 08:17:27;;;;;;;2.10;0.30;;;;;;;26.26;92.27;98086.95;107113;1254;99120;-58
2023/08/02 08:20:06;;;;;;;1.10;0.50;;;;;;;26.44;88.27;98087.54;106965;1272;25349;-60
2023/08/02 08:22:36;;;;;;;2.20;0.50;;;;;;;25.59;86.77;98094.67;107096;1267;99291;-60
2023/08/02 08:25:06;;;;;;;1.00;0.60;;;;;;;25.10;87.56;98093.84;107414;1269;22517;-61
2023/08/02 08:27:36;;;;;;;1.70;0.70;;;;;;;25.91;87.90;98094.59;107182;1267;24332;-59
2023/08/02 08:30:06;;;;;;;2.40;0.90;;;;;;;26.34;87.10;98095.36;107078;1266;99124;-59
2023/08/02 08:32:34;;;;;;;3.00;0.80;;;;;;;27.28;87.32;98091.80;107139;1266;22518;-58
2023/08/02 08:35:05;;;;;;;3.60;0.60;;;;;;;28.94;89.13;98093.17;107345;1266;101102;-60
2023/08/02 08:37:34;;;;;;;3.20;0.50;;;;;;;31.67;88.20;98092.05;107671;1272;25359;-59
2023/08/02 08:40:06;;;;;;;0.60;0.40;;;;;;;31.38;80.78;98097.11;107097;1268;99352;-59
2023/08/02 08:42:53;;;;;;;3.40;0.50;;;;;;;29.74;79.28;98104.73;107070;1269;23898;-59
2023/08/02 08:45:23;;;;;;;0.70;0.50;;;;;;;29.68;81.99;98094.70;107496;1267;22524;-61
2023/08/02 08:47:53;;;;;;;1.90;0.40;;;;;;;29.68;78.27;98098.05;106964;1272;101335;-60
2023/08/02 08:50:23;;;;;;;0.80;0.50;;;;;;;29.07;78.47;98094.95;107134;1272;22924;-58
2023/08/02 08:52:57;;;;;;;2.90;0.60;;;;;;;31.07;81.35;98093.38;106981;1270;99107;-60
2023/08/02 08:55:28;;;;;;;1.80;0.90;;;;;;;33.96;79.25;98096.34;107082;1266;22929;-59
2023/08/02 08:58:03;;;;;;;2.20;0.60;;;;;;;35.71;74.94;98092.17;106860;1269;99393;-61
2023/08/02 09:00:40;;;;;;;1.10;0.80;;;;;;;35.55;72.78;98091.29;107040;1267;22530;-59
2023/08/02 09:03:14;;;;;;;2.90;0.50;;;;;;;34.48;69.92;98097.79;107381;1272;24341;-62
2023/08/02 09:05:54;;;;;;;3.10;0.60;;;;;;;32.52;67.68;98099.12;106926;1266;99218;-60
2023/08/02 09:08:47;;;;;;;1.00;0.70;;;;;;;31.61;68.57;98087.33;107018;1270;25360;-61
2023/08/02 09:11:22;;;;;;;1.00;0.40;;;;;;;31.99;65.72;98091.91;106889;1266;99231;-60
2023/08/02 09:14:17;;;;;;;1.40;0.60;;;;;;;30.84;64.17;98093.15;107222;1272;24189;-60
2023/08/02 09:16:56;;;;;;;2.70;0.50;;;;;;;29.16;62.93;98099.12;107008;1266;99209;-60
2023/08/02 09:19:28;;;;;;;0.80;0.40;;;;;;;28.19;62.99;98099.73;107263;1263;26509;-60
2023/08/02 09:22:14;;;;;;;2.30;0.40;;;;;;;27.61;62.18;98099.84;107084;1266;99247;-59
2023/08/02 09:24:45;;;;;;;0.70;0.40;;;;;;;26.95;61.32;98089.67;107331;1253;22764;-60
2023/08/02 09:27:19;;;;;;;0.80;0.50;;;;;;;26.40;60.89;98095.42;107118;1269;24350;-59
2023/08/02 09:29:50;;;;;;;1.80;0.90;;;;;;;25.90;60.59;98087.30;107030;1272;99088;-61
2023/08/02 09:32:21;;;;;;;2.20;0.60;;;;;;;25.48;60.62;98084.05;106998;1271;22524;-65
2023/08/02 09:34:53;;;;;;;0.70;0.50;;;;;;;25.34;60.87;98082.96;109221;1268;99530;-66
2023/08/02 09:37:33;;;;;;;0.80;0.60;;;;;;;26.18;61.70;98080.77;107266;1267;22506;-60
2023/08/02 09:40:11;;;;;;;1.20;0.60;;;;;;;28.22;62.09;98079.33;109093;1270;100523;-64
2023/08/02 09:43:00;;;;;;;0.40;0.40;;;;;;;29.34;60.49;98082.16;106921;1270;24388;-66
2023/08/02 09:45:58;;;;;;;2.00;0.40;;;;;;;30.30;61.33;98078.57;106870;1267;99290;-63
2023/08/02 09:48:36;;;;;;;2.20;0.50;;;;;;;31.43;59.83;98082.88;106915;1266;25480;-64
2023/08/02 09:51:07;;;;;;;3.00;0.50;;;;;;;31.89;58.30;98075.88;106932;1266;23893;-64
2023/08/02 09:53:36;;;;;;;1.80;0.40;;;;;;;33.05;60.31;98078.13;106915;1269;99344;-63
2023/08/02 09:56:05;;;;;;;1.30;0.40;;;;;;;35.97;58.80;98080.50;107019;1266;22629;-65
2023/08/02 09:58:38;;;;;;;2.00;0.70;;;;;;;34.94;54.77;98088.06;106812;1275;99404;-63
2023/08/02 10:01:08;;;;;;;2.70;0.40;;;;;;;32.80;54.33;98091.85;107121;1266;22521;-66
2023/08/02 10:03:38;;;;;;;0.70;0.40;;;;;;;31.54;54.13;98089.73;107001;1274;25337;-70
2023/08/02 10:06:07;;;;;;;0.90;0.50;;;;;;;30.50;53.36;98095.45;106959;1271;99715;-62
2023/08/02 10:08:40;;;;;;;0.80;0.30;;;;;;;29.69;52.86;98092.03;107106;1273;25268;-61
2023/08/02 10:11:09;;;;;;;1.00;0.20;;;;;;;28.96;52.56;98090.90;106962;1266;99597;-65
2023/08/02 10:13:40;;;;;;;0.60;0.40;;;;;;;28.38;52.23;98096.40;107014;1270;24298;-65
2023/08/02 10:16:09;;;;;;;2.40;0.40;;;;;;;27.93;52.07;98095.70;106858;1261;99540;-65
2023/08/02 10:18:42;;;;;;;0.90;0.30;;;;;;;27.70;52.12;98096.73;106877;1266;22863;-61
2023/08/02 10:21:14;;;;;;;1.90;0.60;;;;;;;28.27;52.32;98097.20;106970;1267;23118;-62
2023/08/02 10:23:43;;;;;;;0.50;0.40;;;;;;;28.88;51.98;98105.58;106963;1268;99092;-62
2023/08/02 10:26:13;;;;;;;2.10;0.50;;;;;;;28.84;50.86;98103.10;107021;1272;22727;-72
2023/08/02 10:28:54;;;;;;;1.00;0.40;;;;;;;28.79;50.50;98104.16;106902;1270;99599;-68
2023/08/02 10:31:23;;;;;;;1.20;0.40;;;;;;;28.38;50.46;98103.96;106909;1270;22602;-66
2023/08/02 10:33:52;;;;;;;0.90;0.30;;;;;;;27.94;50.05;98104.96;106931;1267;25287;-68
2023/08/02 10:36:23;;;;;;;0.90;0.40;;;;;;;27.49;50.02;98114.57;106845;1269;98990;-72
2023/08/02 10:38:55;;;;;;;0.30;0.30;;;;;;;27.87;51.00;98114.92;107001;1272;27211;-71
2023/08/02 10:41:25;;;;;;;1.00;0.50;;;;;;;28.99;50.31;98115.98;106967;1262;99457;-68
2023/08/02 10:43:54;;;;;;;0.70;0.30;;;;;;;29.08;49.92;98111.58;107005;1273;24256;-67
2023/08/02 10:46:25;;;;;;;1.00;0.30;;;;;;;28.20;49.35;98109.55;106962;1270;99285;-61
2023/08/02 10:49:16;;;;;;;0.90;0.40;;;;;;;27.94;49.97;98108.89;107009;1267;22524;-58
2023/08/02 10:51:45;;;;;;;0.60;0.30;;;;;;;30.17;51.19;98113.15;107078;1270;22585;-59
2023/08/02 10:54:21;;;;;;;1.10;0.50;;;;;;;31.31;49.67;98113.48;106954;1267;98908;-58
2023/08/02 10:56:58;;;;;;;2.50;0.40;;;;;;;32.17;49.98;98111.09;106949;1269;24198;-59
2023/08/02 10:59:29;;;;;;;0.70;0.30;;;;;;;32.00;48.44;98111.02;107016;1269;99187;-58
2023/08/02 11:02:02;;;;;;;0.70;0.30;;;;;;;31.03;48.13;98113.95;106983;1272;22596;-57
2023/08/02 11:04:31;;;;;;;0.40;0.30;;;;;;;30.97;48.07;98113.68;107083;1269;99390;-57
2023/08/02 11:07:21;;;;;;;1.40;0.30;;;;;;;30.24;47.52;98125.58;107182;1266;24272;-57
2023/08/02 11:09:53;;;;;;;0.80;0.30;;;;;;;29.50;47.45;98116.48;107099;1267;24208;-56
2023/08/02 11:12:22;;;;;;;1.70;0.50;;;;;;;29.09;46.60;98116.69;106705;1272;112659;-55
2023/08/02 11:14:52;;;;;;;2.10;0.20;;;;;;;28.06;46.44;98118.73;110666;1272;22281;-55
2023/08/02 11:17:22;;;;;;;2.90;0.60;;;;;;;27.39;46.92;98121.25;108980;1267;99610;-57
2023/08/02 11:19:54;;;;;;;1.40;0.30;;;;;;;28.87;48.58;98116.52;106882;1269;22524;-57
2023/08/02 11:22:34;;;;;;;1.40;0.40;;;;;;;32.00;48.29;98109.60;106723;1256;99289;-58
2023/08/02 11:25:03;;;;;;;0.40;0.20;;;;;;;33.60;46.88;98109.64;106825;1268;25482;-57
2023/08/02 11:27:33;;;;;;;1.70;0.30;;;;;;;33.23;46.69;98114.65;107032;1270;22620;-57
2023/08/02 11:30:08;;;;;;;0.40;0.30;;;;;;;34.13;46.80;98107.98;106845;1269;99224;-59
2023/08/02 11:33:06;;;;;;;2.30;0.30;;;;;;;34.55;46.50;98108.34;107058;1270;22573;-56
2023/08/02 11:35:35;;;;;;;0.40;0.20;;;;;;;35.77;45.48;98101.89;106934;1270;99131;-58
2023/08/02 11:38:04;;;;;;;4.60;1.20;;;;;;;35.51;45.09;98107.67;106933;1267;24399;-57
2023/08/02 11:40:43;;;;;;;4.10;0.50;;;;;;;37.24;45.57;98102.08;106937;1267;100448;-58
2023/08/02 11:43:14;;;;;;;0.20;0.20;;;;;;;38.80;43.95;98105.30;107078;1269;22539;-61
2023/08/02 11:45:43;;;;;;;0.90;0.30;;;;;;;38.90;43.00;98096.74;106967;1267;22523;-58
2023/08/02 11:48:27;;;;;;;2.60;0.50;;;;;;;39.76;43.00;98097.34;106940;1267;99300;-56
2023/08/02 11:50:59;;;;;;;2.10;0.30;;;;;;;41.41;41.76;98096.40;107032;1267;25485;-60
2023/08/02 11:53:31;;;;;;;0.70;0.30;;;;;;;41.39;40.14;98095.36;106985;1267;99023;-58
2023/08/02 11:56:00;;;;;;;0.20;0.20;;;;;;;39.23;38.26;98090.66;107076;1267;22637;-57